sensor_id;sensor_type;location;lat;lon;timestamp;P1;durP1;ratioP1;P2;durP2;ratioP2
52033;SDS011;38045;52.988;6.536;2024-03-22T00:00:04;31.73;;;25.27;;
52033;SDS011;38045;52.988;6.536;2024-03-22T00:02:36;36.47;;;27.77;;
52033;SDS011;38045;52.988;6.536;2024-03-22T00:05:02;28.42;;;17.75;;
52033;SDS011;38045;52.988;6.536;2024-03-22T00:07:28;31.20;;;21.77;;
52033;SDS011;38045;52.988;6.536;2024-03-22T00:09:54;29.00;;;20.20;;
52033;SDS011;38045;52.988;6.536;2024-03-22T00:12:19;28.33;;;22.17;;
52033;SDS011;38045;52.988;6.536;2024-03-22T00:14:45;30.90;;;24.50;;
52033;SDS011;38045;52.988;6.536;2024-03-22T00:17:10;27.00;;;20.60;;
52033;SDS011;38045;52.988;6.536;2024-03-22T00:19:36;39.05;;;25.90;;
52033;SDS011;38045;52.988;6.536;2024-03-22T00:22:02;28.67;;;21.05;;
52033;SDS011;38045;52.988;6.536;2024-03-22T00:24:27;41.47;;;25.88;;
52033;SDS011;38045;52.988;6.536;2024-03-22T00:26:53;39.05;;;23.95;;
52033;SDS011;38045;52.988;6.536;2024-03-22T00:29:18;33.55;;;23.67;;
52033;SDS011;38045;52.988;6.536;2024-03-22T00:31:44;27.10;;;20.13;;
52033;SDS011;38045;52.988;6.536;2024-03-22T00:34:09;40.58;;;28.38;;
52033;SDS011;38045;52.988;6.536;2024-03-22T00:36:35;39.25;;;27.58;;
52033;SDS011;38045;52.988;6.536;2024-03-22T00:39:01;44.53;;;31.23;;
52033;SDS011;38045;52.988;6.536;2024-03-22T00:41:26;38.85;;;26.17;;
52033;SDS011;38045;52.988;6.536;2024-03-22T00:43:52;28.55;;;21.77;;
52033;SDS011;38045;52.988;6.536;2024-03-22T00:46:17;38.13;;;23.52;;
52033;SDS011;38045;52.988;6.536;2024-03-22T00:48:43;32.67;;;23.15;;
52033;SDS011;38045;52.988;6.536;2024-03-22T00:51:08;44.65;;;35.08;;
52033;SDS011;38045;52.988;6.536;2024-03-22T00:53:34;39.45;;;28.42;;
52033;SDS011;38045;52.988;6.536;2024-03-22T00:56:00;33.40;;;21.85;;
52033;SDS011;38045;52.988;6.536;2024-03-22T00:58:26;44.05;;;32.45;;
52033;SDS011;38045;52.988;6.536;2024-03-22T01:00:52;51.97;;;39.70;;
52033;SDS011;38045;52.988;6.536;2024-03-22T01:03:18;41.45;;;29.90;;
52033;SDS011;38045;52.988;6.536;2024-03-22T01:05:44;49.28;;;35.75;;
52033;SDS011;38045;52.988;6.536;2024-03-22T01:08:10;31.80;;;23.02;;
52033;SDS011;38045;52.988;6.536;2024-03-22T01:10:35;49.20;;;31.35;;
52033;SDS011;38045;52.988;6.536;2024-03-22T01:13:01;45.72;;;31.42;;
52033;SDS011;38045;52.988;6.536;2024-03-22T01:15:26;45.00;;;27.00;;
52033;SDS011;38045;52.988;6.536;2024-03-22T01:17:52;52.03;;;34.15;;
52033;SDS011;38045;52.988;6.536;2024-03-22T01:20:18;42.17;;;29.20;;
52033;SDS011;38045;52.988;6.536;2024-03-22T01:22:44;49.40;;;37.78;;
52033;SDS011;38045;52.988;6.536;2024-03-22T01:25:09;44.67;;;23.67;;
52033;SDS011;38045;52.988;6.536;2024-03-22T01:27:35;45.78;;;29.50;;
52033;SDS011;38045;52.988;6.536;2024-03-22T01:30:01;52.72;;;36.47;;
52033;SDS011;38045;52.988;6.536;2024-03-22T01:32:27;61.95;;;39.72;;
52033;SDS011;38045;52.988;6.536;2024-03-22T01:34:53;34.28;;;23.95;;
52033;SDS011;38045;52.988;6.536;2024-03-22T01:37:18;49.03;;;27.63;;
52033;SDS011;38045;52.988;6.536;2024-03-22T01:39:44;35.67;;;25.00;;
52033;SDS011;38045;52.988;6.536;2024-03-22T01:42:09;37.17;;;21.17;;
52033;SDS011;38045;52.988;6.536;2024-03-22T01:44:35;50.83;;;27.70;;
52033;SDS011;38045;52.988;6.536;2024-03-22T01:47:00;51.72;;;32.33;;
52033;SDS011;38045;52.988;6.536;2024-03-22T01:49:27;58.80;;;38.75;;
52033;SDS011;38045;52.988;6.536;2024-03-22T01:51:54;62.00;;;42.45;;
52033;SDS011;38045;52.988;6.536;2024-03-22T01:54:20;50.00;;;33.80;;
52033;SDS011;38045;52.988;6.536;2024-03-22T01:56:46;57.28;;;34.15;;
52033;SDS011;38045;52.988;6.536;2024-03-22T01:59:12;59.10;;;34.00;;
52033;SDS011;38045;52.988;6.536;2024-03-22T02:01:39;62.67;;;42.05;;
52033;SDS011;38045;52.988;6.536;2024-03-22T02:04:05;64.03;;;45.92;;
52033;SDS011;38045;52.988;6.536;2024-03-22T02:06:31;51.35;;;36.80;;
52033;SDS011;38045;52.988;6.536;2024-03-22T02:08:57;43.63;;;28.88;;
52033;SDS011;38045;52.988;6.536;2024-03-22T02:11:23;55.97;;;36.38;;
52033;SDS011;38045;52.988;6.536;2024-03-22T02:13:50;55.05;;;37.83;;
52033;SDS011;38045;52.988;6.536;2024-03-22T02:16:16;53.17;;;28.17;;
52033;SDS011;38045;52.988;6.536;2024-03-22T02:18:42;55.63;;;35.47;;
52033;SDS011;38045;52.988;6.536;2024-03-22T02:21:07;55.70;;;30.92;;
52033;SDS011;38045;52.988;6.536;2024-03-22T02:23:33;46.42;;;28.35;;
52033;SDS011;38045;52.988;6.536;2024-03-22T02:26:00;71.82;;;49.67;;
52033;SDS011;38045;52.988;6.536;2024-03-22T02:28:27;73.00;;;43.35;;
52033;SDS011;38045;52.988;6.536;2024-03-22T02:30:53;47.25;;;32.00;;
52033;SDS011;38045;52.988;6.536;2024-03-22T02:33:19;73.32;;;48.90;;
52033;SDS011;38045;52.988;6.536;2024-03-22T02:35:48;54.28;;;38.08;;
52033;SDS011;38045;52.988;6.536;2024-03-22T02:38:14;51.58;;;34.22;;
52033;SDS011;38045;52.988;6.536;2024-03-22T02:40:40;45.13;;;27.48;;
52033;SDS011;38045;52.988;6.536;2024-03-22T02:43:05;52.65;;;37.05;;
52033;SDS011;38045;52.988;6.536;2024-03-22T02:45:31;60.60;;;37.17;;
52033;SDS011;38045;52.988;6.536;2024-03-22T02:47:57;67.88;;;45.47;;
52033;SDS011;38045;52.988;6.536;2024-03-22T02:50:22;51.67;;;30.80;;
52033;SDS011;38045;52.988;6.536;2024-03-22T02:52:48;59.47;;;38.83;;
52033;SDS011;38045;52.988;6.536;2024-03-22T02:55:15;64.65;;;42.53;;
52033;SDS011;38045;52.988;6.536;2024-03-22T02:57:40;69.03;;;39.42;;
52033;SDS011;38045;52.988;6.536;2024-03-22T03:00:06;62.88;;;43.20;;
52033;SDS011;38045;52.988;6.536;2024-03-22T03:02:32;55.58;;;41.72;;
52033;SDS011;38045;52.988;6.536;2024-03-22T03:04:58;65.45;;;40.40;;
52033;SDS011;38045;52.988;6.536;2024-03-22T03:07:24;66.05;;;41.60;;
52033;SDS011;38045;52.988;6.536;2024-03-22T03:09:50;65.90;;;42.38;;
52033;SDS011;38045;52.988;6.536;2024-03-22T03:12:16;62.78;;;43.72;;
52033;SDS011;38045;52.988;6.536;2024-03-22T03:14:41;69.72;;;43.42;;
52033;SDS011;38045;52.988;6.536;2024-03-22T03:17:07;57.53;;;40.67;;
52033;SDS011;38045;52.988;6.536;2024-03-22T03:19:33;61.13;;;40.30;;
52033;SDS011;38045;52.988;6.536;2024-03-22T03:21:58;59.13;;;36.03;;
52033;SDS011;38045;52.988;6.536;2024-03-22T03:24:24;71.00;;;51.95;;
52033;SDS011;38045;52.988;6.536;2024-03-22T03:26:49;57.08;;;37.53;;
52033;SDS011;38045;52.988;6.536;2024-03-22T03:29:15;61.55;;;31.65;;
52033;SDS011;38045;52.988;6.536;2024-03-22T03:31:41;54.05;;;31.15;;
52033;SDS011;38045;52.988;6.536;2024-03-22T03:34:06;68.95;;;47.35;;
52033;SDS011;38045;52.988;6.536;2024-03-22T03:36:32;54.30;;;32.22;;
52033;SDS011;38045;52.988;6.536;2024-03-22T03:38:57;59.22;;;39.88;;
52033;SDS011;38045;52.988;6.536;2024-03-22T03:41:23;69.82;;;42.20;;
52033;SDS011;38045;52.988;6.536;2024-03-22T03:43:48;50.05;;;33.75;;
52033;SDS011;38045;52.988;6.536;2024-03-22T03:46:14;70.50;;;49.63;;
52033;SDS011;38045;52.988;6.536;2024-03-22T03:48:40;57.70;;;37.65;;
52033;SDS011;38045;52.988;6.536;2024-03-22T03:51:05;67.78;;;40.53;;
52033;SDS011;38045;52.988;6.536;2024-03-22T03:53:31;68.88;;;41.72;;
52033;SDS011;38045;52.988;6.536;2024-03-22T03:55:56;53.85;;;36.47;;
52033;SDS011;38045;52.988;6.536;2024-03-22T03:58:22;73.70;;;46.00;;
52033;SDS011;38045;52.988;6.536;2024-03-22T04:00:48;72.68;;;39.83;;
52033;SDS011;38045;52.988;6.536;2024-03-22T04:03:13;59.78;;;39.17;;
52033;SDS011;38045;52.988;6.536;2024-03-22T04:05:39;80.35;;;49.92;;
52033;SDS011;38045;52.988;6.536;2024-03-22T04:08:05;71.10;;;38.38;;
52033;SDS011;38045;52.988;6.536;2024-03-22T04:10:30;66.38;;;42.38;;
52033;SDS011;38045;52.988;6.536;2024-03-22T04:12:56;51.20;;;29.17;;
52033;SDS011;38045;52.988;6.536;2024-03-22T04:15:22;59.83;;;35.22;;
52033;SDS011;38045;52.988;6.536;2024-03-22T04:17:47;60.65;;;35.58;;
52033;SDS011;38045;52.988;6.536;2024-03-22T04:20:13;60.33;;;36.40;;
52033;SDS011;38045;52.988;6.536;2024-03-22T04:22:39;60.05;;;39.72;;
52033;SDS011;38045;52.988;6.536;2024-03-22T04:25:04;63.08;;;45.85;;
52033;SDS011;38045;52.988;6.536;2024-03-22T04:27:30;61.15;;;34.47;;
52033;SDS011;38045;52.988;6.536;2024-03-22T04:29:56;68.82;;;43.03;;
52033;SDS011;38045;52.988;6.536;2024-03-22T04:32:22;69.22;;;43.15;;
52033;SDS011;38045;52.988;6.536;2024-03-22T04:34:47;52.85;;;32.80;;
52033;SDS011;38045;52.988;6.536;2024-03-22T04:37:13;52.80;;;34.97;;
52033;SDS011;38045;52.988;6.536;2024-03-22T04:39:39;75.07;;;44.72;;
52033;SDS011;38045;52.988;6.536;2024-03-22T04:42:05;65.22;;;43.80;;
52033;SDS011;38045;52.988;6.536;2024-03-22T04:44:32;69.18;;;46.85;;
52033;SDS011;38045;52.988;6.536;2024-03-22T04:46:57;70.20;;;45.08;;
52033;SDS011;38045;52.988;6.536;2024-03-22T04:49:23;52.28;;;34.13;;
52033;SDS011;38045;52.988;6.536;2024-03-22T04:51:48;58.30;;;39.33;;
52033;SDS011;38045;52.988;6.536;2024-03-22T04:54:14;59.33;;;39.63;;
52033;SDS011;38045;52.988;6.536;2024-03-22T04:56:40;49.72;;;30.75;;
52033;SDS011;38045;52.988;6.536;2024-03-22T04:59:05;62.35;;;39.83;;
52033;SDS011;38045;52.988;6.536;2024-03-22T05:01:31;55.47;;;34.97;;
52033;SDS011;38045;52.988;6.536;2024-03-22T05:03:56;51.05;;;26.40;;
52033;SDS011;38045;52.988;6.536;2024-03-22T05:06:22;48.78;;;30.88;;
52033;SDS011;38045;52.988;6.536;2024-03-22T05:08:47;54.03;;;34.38;;
52033;SDS011;38045;52.988;6.536;2024-03-22T05:11:13;50.80;;;31.33;;
52033;SDS011;38045;52.988;6.536;2024-03-22T05:13:39;54.20;;;34.70;;
52033;SDS011;38045;52.988;6.536;2024-03-22T05:16:07;50.90;;;29.20;;
52033;SDS011;38045;52.988;6.536;2024-03-22T05:18:33;51.55;;;29.65;;
52033;SDS011;38045;52.988;6.536;2024-03-22T05:20:58;57.00;;;37.63;;
52033;SDS011;38045;52.988;6.536;2024-03-22T05:23:24;55.70;;;37.97;;
52033;SDS011;38045;52.988;6.536;2024-03-22T05:25:49;44.92;;;29.77;;
52033;SDS011;38045;52.988;6.536;2024-03-22T05:28:15;52.80;;;33.28;;
52033;SDS011;38045;52.988;6.536;2024-03-22T05:30:40;45.03;;;24.23;;
52033;SDS011;38045;52.988;6.536;2024-03-22T05:33:06;33.25;;;24.13;;
52033;SDS011;38045;52.988;6.536;2024-03-22T05:35:32;56.72;;;36.13;;
52033;SDS011;38045;52.988;6.536;2024-03-22T05:37:57;41.10;;;25.00;;
52033;SDS011;38045;52.988;6.536;2024-03-22T05:40:23;40.65;;;22.23;;
52033;SDS011;38045;52.988;6.536;2024-03-22T05:42:48;70.53;;;35.88;;
52033;SDS011;38045;52.988;6.536;2024-03-22T05:45:14;45.25;;;28.33;;
52033;SDS011;38045;52.988;6.536;2024-03-22T05:47:40;33.15;;;20.52;;
52033;SDS011;38045;52.988;6.536;2024-03-22T05:50:05;42.13;;;27.67;;
52033;SDS011;38045;52.988;6.536;2024-03-22T05:52:33;50.83;;;34.35;;
52033;SDS011;38045;52.988;6.536;2024-03-22T05:54:59;60.33;;;39.03;;
52033;SDS011;38045;52.988;6.536;2024-03-22T05:57:24;49.63;;;26.17;;
52033;SDS011;38045;52.988;6.536;2024-03-22T05:59:50;47.90;;;27.95;;
52033;SDS011;38045;52.988;6.536;2024-03-22T06:02:15;48.85;;;29.92;;
52033;SDS011;38045;52.988;6.536;2024-03-22T06:04:41;54.55;;;35.50;;
52033;SDS011;38045;52.988;6.536;2024-03-22T06:07:07;35.25;;;23.13;;
52033;SDS011;38045;52.988;6.536;2024-03-22T06:09:33;43.70;;;27.05;;
52033;SDS011;38045;52.988;6.536;2024-03-22T06:12:03;33.95;;;22.05;;
52033;SDS011;38045;52.988;6.536;2024-03-22T06:14:29;44.72;;;21.52;;
52033;SDS011;38045;52.988;6.536;2024-03-22T06:16:55;45.90;;;28.05;;
52033;SDS011;38045;52.988;6.536;2024-03-22T06:19:20;39.20;;;26.15;;
52033;SDS011;38045;52.988;6.536;2024-03-22T06:21:46;47.85;;;32.45;;
52033;SDS011;38045;52.988;6.536;2024-03-22T06:24:12;55.08;;;37.78;;
52033;SDS011;38045;52.988;6.536;2024-03-22T06:26:37;45.90;;;28.45;;
52033;SDS011;38045;52.988;6.536;2024-03-22T06:29:03;41.13;;;28.60;;
52033;SDS011;38045;52.988;6.536;2024-03-22T06:31:29;53.13;;;37.13;;
52033;SDS011;38045;52.988;6.536;2024-03-22T06:33:54;49.67;;;32.35;;
52033;SDS011;38045;52.988;6.536;2024-03-22T06:36:21;46.97;;;30.70;;
52033;SDS011;38045;52.988;6.536;2024-03-22T06:38:47;50.65;;;28.40;;
52033;SDS011;38045;52.988;6.536;2024-03-22T06:41:13;45.95;;;25.58;;
52033;SDS011;38045;52.988;6.536;2024-03-22T06:43:38;46.85;;;26.88;;
52033;SDS011;38045;52.988;6.536;2024-03-22T06:46:04;48.05;;;29.35;;
52033;SDS011;38045;52.988;6.536;2024-03-22T06:48:29;39.00;;;26.08;;
52033;SDS011;38045;52.988;6.536;2024-03-22T06:50:55;34.95;;;21.02;;
52033;SDS011;38045;52.988;6.536;2024-03-22T06:53:20;46.38;;;28.67;;
52033;SDS011;38045;52.988;6.536;2024-03-22T06:55:46;47.95;;;29.25;;
52033;SDS011;38045;52.988;6.536;2024-03-22T06:58:11;44.65;;;32.72;;
52033;SDS011;38045;52.988;6.536;2024-03-22T07:00:37;39.22;;;24.23;;
52033;SDS011;38045;52.988;6.536;2024-03-22T07:03:03;42.63;;;25.50;;
52033;SDS011;38045;52.988;6.536;2024-03-22T07:05:28;38.78;;;26.08;;
52033;SDS011;38045;52.988;6.536;2024-03-22T07:07:54;39.38;;;23.20;;
52033;SDS011;38045;52.988;6.536;2024-03-22T07:10:22;41.13;;;22.98;;
52033;SDS011;38045;52.988;6.536;2024-03-22T07:12:52;45.65;;;28.83;;
52033;SDS011;38045;52.988;6.536;2024-03-22T07:15:19;36.17;;;23.17;;
52033;SDS011;38045;52.988;6.536;2024-03-22T07:17:44;35.33;;;22.30;;
52033;SDS011;38045;52.988;6.536;2024-03-22T07:20:10;36.70;;;21.83;;
52033;SDS011;38045;52.988;6.536;2024-03-22T07:22:36;33.20;;;21.25;;
52033;SDS011;38045;52.988;6.536;2024-03-22T07:25:01;30.70;;;18.83;;
52033;SDS011;38045;52.988;6.536;2024-03-22T07:27:27;39.50;;;28.38;;
52033;SDS011;38045;52.988;6.536;2024-03-22T07:29:54;35.85;;;22.63;;
52033;SDS011;38045;52.988;6.536;2024-03-22T07:32:20;34.58;;;18.70;;
52033;SDS011;38045;52.988;6.536;2024-03-22T07:34:46;35.33;;;21.85;;
52033;SDS011;38045;52.988;6.536;2024-03-22T07:37:11;31.35;;;21.90;;
52033;SDS011;38045;52.988;6.536;2024-03-22T07:39:37;29.52;;;19.48;;
52033;SDS011;38045;52.988;6.536;2024-03-22T07:42:03;32.40;;;20.48;;
52033;SDS011;38045;52.988;6.536;2024-03-22T07:44:28;31.80;;;19.65;;
52033;SDS011;38045;52.988;6.536;2024-03-22T07:46:54;39.05;;;26.10;;
52033;SDS011;38045;52.988;6.536;2024-03-22T07:49:20;33.00;;;22.10;;
52033;SDS011;38045;52.988;6.536;2024-03-22T07:51:45;18.13;;;13.27;;
52033;SDS011;38045;52.988;6.536;2024-03-22T07:54:11;33.75;;;21.48;;
52033;SDS011;38045;52.988;6.536;2024-03-22T07:56:37;32.65;;;22.05;;
52033;SDS011;38045;52.988;6.536;2024-03-22T07:59:02;37.47;;;22.73;;
52033;SDS011;38045;52.988;6.536;2024-03-22T08:01:28;32.38;;;22.67;;
52033;SDS011;38045;52.988;6.536;2024-03-22T08:03:53;39.15;;;18.13;;
52033;SDS011;38045;52.988;6.536;2024-03-22T08:06:19;27.77;;;18.40;;
52033;SDS011;38045;52.988;6.536;2024-03-22T08:08:44;37.17;;;20.52;;
52033;SDS011;38045;52.988;6.536;2024-03-22T08:11:10;34.22;;;21.10;;
52033;SDS011;38045;52.988;6.536;2024-03-22T08:13:36;38.13;;;24.05;;
52033;SDS011;38045;52.988;6.536;2024-03-22T08:16:01;30.73;;;20.65;;
52033;SDS011;38045;52.988;6.536;2024-03-22T08:18:28;24.27;;;17.25;;
52033;SDS011;38045;52.988;6.536;2024-03-22T08:20:54;31.60;;;18.45;;
52033;SDS011;38045;52.988;6.536;2024-03-22T08:23:19;27.00;;;17.23;;
52033;SDS011;38045;52.988;6.536;2024-03-22T08:25:47;25.83;;;17.83;;
52033;SDS011;38045;52.988;6.536;2024-03-22T08:28:13;35.72;;;22.10;;
52033;SDS011;38045;52.988;6.536;2024-03-22T08:30:39;24.30;;;13.75;;
52033;SDS011;38045;52.988;6.536;2024-03-22T08:33:05;20.98;;;13.88;;
52033;SDS011;38045;52.988;6.536;2024-03-22T08:35:30;24.38;;;18.40;;
52033;SDS011;38045;52.988;6.536;2024-03-22T08:37:56;26.50;;;18.75;;
52033;SDS011;38045;52.988;6.536;2024-03-22T08:40:22;34.35;;;20.05;;
52033;SDS011;38045;52.988;6.536;2024-03-22T08:42:48;28.33;;;17.00;;
52033;SDS011;38045;52.988;6.536;2024-03-22T08:45:14;19.42;;;11.88;;
52033;SDS011;38045;52.988;6.536;2024-03-22T08:47:41;24.80;;;18.52;;
52033;SDS011;38045;52.988;6.536;2024-03-22T08:50:07;18.73;;;12.38;;
52033;SDS011;38045;52.988;6.536;2024-03-22T08:52:33;21.98;;;13.27;;
52033;SDS011;38045;52.988;6.536;2024-03-22T08:55:00;26.40;;;14.43;;
52033;SDS011;38045;52.988;6.536;2024-03-22T08:57:26;17.88;;;10.68;;
52033;SDS011;38045;52.988;6.536;2024-03-22T08:59:52;25.80;;;15.15;;
52033;SDS011;38045;52.988;6.536;2024-03-22T09:02:17;21.25;;;13.88;;
52033;SDS011;38045;52.988;6.536;2024-03-22T09:04:43;21.05;;;13.95;;
52033;SDS011;38045;52.988;6.536;2024-03-22T09:07:09;17.65;;;13.00;;
52033;SDS011;38045;52.988;6.536;2024-03-22T09:09:34;24.52;;;17.45;;
52033;SDS011;38045;52.988;6.536;2024-03-22T09:12:00;25.98;;;15.60;;
52033;SDS011;38045;52.988;6.536;2024-03-22T09:14:25;15.38;;;11.07;;
52033;SDS011;38045;52.988;6.536;2024-03-22T09:16:51;29.23;;;17.40;;
52033;SDS011;38045;52.988;6.536;2024-03-22T09:19:17;20.13;;;14.55;;
52033;SDS011;38045;52.988;6.536;2024-03-22T09:21:43;21.85;;;13.13;;
52033;SDS011;38045;52.988;6.536;2024-03-22T09:24:08;22.52;;;16.48;;
52033;SDS011;38045;52.988;6.536;2024-03-22T09:26:34;14.25;;;10.90;;
52033;SDS011;38045;52.988;6.536;2024-03-22T09:29:00;22.35;;;15.68;;
52033;SDS011;38045;52.988;6.536;2024-03-22T09:31:26;21.58;;;15.57;;
52033;SDS011;38045;52.988;6.536;2024-03-22T09:33:52;18.90;;;13.80;;
52033;SDS011;38045;52.988;6.536;2024-03-22T09:36:17;25.33;;;15.73;;
52033;SDS011;38045;52.988;6.536;2024-03-22T09:38:43;19.17;;;13.65;;
52033;SDS011;38045;52.988;6.536;2024-03-22T09:41:09;17.63;;;12.55;;
52033;SDS011;38045;52.988;6.536;2024-03-22T09:43:35;17.48;;;10.48;;
52033;SDS011;38045;52.988;6.536;2024-03-22T09:46:03;11.93;;;8.50;;
52033;SDS011;38045;52.988;6.536;2024-03-22T09:48:29;14.50;;;10.02;;
52033;SDS011;38045;52.988;6.536;2024-03-22T09:50:55;20.30;;;13.07;;
52033;SDS011;38045;52.988;6.536;2024-03-22T09:53:21;17.42;;;12.52;;
52033;SDS011;38045;52.988;6.536;2024-03-22T09:55:51;14.52;;;11.88;;
52033;SDS011;38045;52.988;6.536;2024-03-22T09:58:22;17.45;;;11.25;;
52033;SDS011;38045;52.988;6.536;2024-03-22T10:00:48;18.95;;;12.32;;
52033;SDS011;38045;52.988;6.536;2024-03-22T10:03:14;12.65;;;8.80;;
52033;SDS011;38045;52.988;6.536;2024-03-22T10:05:40;16.40;;;8.90;;
52033;SDS011;38045;52.988;6.536;2024-03-22T10:08:06;15.93;;;9.68;;
52033;SDS011;38045;52.988;6.536;2024-03-22T10:10:35;11.50;;;8.10;;
52033;SDS011;38045;52.988;6.536;2024-03-22T10:13:01;8.52;;;5.53;;
52033;SDS011;38045;52.988;6.536;2024-03-22T10:15:28;14.18;;;11.20;;
52033;SDS011;38045;52.988;6.536;2024-03-22T10:17:56;13.75;;;8.18;;
52033;SDS011;38045;52.988;6.536;2024-03-22T10:20:22;14.35;;;12.38;;
52033;SDS011;38045;52.988;6.536;2024-03-22T10:23:00;16.77;;;10.43;;
52033;SDS011;38045;52.988;6.536;2024-03-22T10:25:26;17.77;;;11.38;;
52033;SDS011;38045;52.988;6.536;2024-03-22T10:27:55;6.55;;;5.85;;
52033;SDS011;38045;52.988;6.536;2024-03-22T10:30:22;10.23;;;9.23;;
52033;SDS011;38045;52.988;6.536;2024-03-22T10:32:48;14.05;;;9.52;;
52033;SDS011;38045;52.988;6.536;2024-03-22T10:35:15;11.23;;;8.50;;
52033;SDS011;38045;52.988;6.536;2024-03-22T10:37:41;9.50;;;7.05;;
52033;SDS011;38045;52.988;6.536;2024-03-22T10:40:07;8.43;;;6.57;;
52033;SDS011;38045;52.988;6.536;2024-03-22T10:42:43;12.05;;;10.35;;
52033;SDS011;38045;52.988;6.536;2024-03-22T10:45:09;9.95;;;7.20;;
52033;SDS011;38045;52.988;6.536;2024-03-22T10:47:37;6.15;;;4.90;;
52033;SDS011;38045;52.988;6.536;2024-03-22T10:50:06;11.57;;;8.15;;
52033;SDS011;38045;52.988;6.536;2024-03-22T10:52:52;5.13;;;4.63;;
52033;SDS011;38045;52.988;6.536;2024-03-22T10:55:26;10.27;;;7.28;;
52033;SDS011;38045;52.988;6.536;2024-03-22T10:57:57;6.68;;;4.30;;
52033;SDS011;38045;52.988;6.536;2024-03-22T11:00:29;5.55;;;4.85;;
52033;SDS011;38045;52.988;6.536;2024-03-22T11:02:59;9.65;;;7.38;;
52033;SDS011;38045;52.988;6.536;2024-03-22T11:05:27;8.48;;;6.78;;
52033;SDS011;38045;52.988;6.536;2024-03-22T11:08:05;11.00;;;7.45;;
52033;SDS011;38045;52.988;6.536;2024-03-22T11:10:33;8.50;;;6.15;;
52033;SDS011;38045;52.988;6.536;2024-03-22T11:13:03;8.88;;;7.00;;
52033;SDS011;38045;52.988;6.536;2024-03-22T11:15:29;5.10;;;4.22;;
52033;SDS011;38045;52.988;6.536;2024-03-22T11:17:55;6.88;;;6.18;;
52033;SDS011;38045;52.988;6.536;2024-03-22T11:20:21;4.63;;;4.15;;
52033;SDS011;38045;52.988;6.536;2024-03-22T11:22:47;8.93;;;6.32;;
52033;SDS011;38045;52.988;6.536;2024-03-22T11:25:13;3.20;;;2.70;;
52033;SDS011;38045;52.988;6.536;2024-03-22T11:27:38;4.65;;;4.22;;
52033;SDS011;38045;52.988;6.536;2024-03-22T11:30:04;3.33;;;3.03;;
52033;SDS011;38045;52.988;6.536;2024-03-22T11:32:30;5.03;;;4.53;;
52033;SDS011;38045;52.988;6.536;2024-03-22T11:34:56;6.70;;;5.63;;
52033;SDS011;38045;52.988;6.536;2024-03-22T11:37:22;5.95;;;4.85;;
52033;SDS011;38045;52.988;6.536;2024-03-22T11:39:48;5.30;;;4.78;;
52033;SDS011;38045;52.988;6.536;2024-03-22T11:42:14;4.18;;;3.80;;
52033;SDS011;38045;52.988;6.536;2024-03-22T11:44:42;5.38;;;4.30;;
52033;SDS011;38045;52.988;6.536;2024-03-22T11:47:08;6.75;;;6.07;;
52033;SDS011;38045;52.988;6.536;2024-03-22T11:49:34;5.40;;;4.90;;
52033;SDS011;38045;52.988;6.536;2024-03-22T11:52:00;6.57;;;3.22;;
52033;SDS011;38045;52.988;6.536;2024-03-22T11:54:26;3.67;;;3.20;;
52033;SDS011;38045;52.988;6.536;2024-03-22T11:56:51;6.07;;;4.30;;
52033;SDS011;38045;52.988;6.536;2024-03-22T11:59:20;3.90;;;3.03;;
52033;SDS011;38045;52.988;6.536;2024-03-22T12:01:46;4.68;;;4.20;;
52033;SDS011;38045;52.988;6.536;2024-03-22T12:04:12;4.05;;;2.50;;
52033;SDS011;38045;52.988;6.536;2024-03-22T12:06:44;3.65;;;2.60;;
52033;SDS011;38045;52.988;6.536;2024-03-22T12:09:10;5.60;;;2.67;;
52033;SDS011;38045;52.988;6.536;2024-03-22T12:11:39;3.58;;;2.38;;
52033;SDS011;38045;52.988;6.536;2024-03-22T12:14:05;4.45;;;2.03;;
52033;SDS011;38045;52.988;6.536;2024-03-22T12:16:31;3.42;;;2.97;;
52033;SDS011;38045;52.988;6.536;2024-03-22T12:18:57;2.45;;;2.10;;
52033;SDS011;38045;52.988;6.536;2024-03-22T12:21:23;7.10;;;2.72;;
52033;SDS011;38045;52.988;6.536;2024-03-22T12:23:49;7.15;;;2.85;;
52033;SDS011;38045;52.988;6.536;2024-03-22T12:26:15;5.10;;;3.08;;
52033;SDS011;38045;52.988;6.536;2024-03-22T12:28:40;7.68;;;3.28;;
52033;SDS011;38045;52.988;6.536;2024-03-22T12:31:07;7.60;;;4.22;;
52033;SDS011;38045;52.988;6.536;2024-03-22T12:33:33;5.10;;;3.67;;
52033;SDS011;38045;52.988;6.536;2024-03-22T12:35:59;6.95;;;3.58;;
52033;SDS011;38045;52.988;6.536;2024-03-22T12:38:25;3.88;;;3.10;;
52033;SDS011;38045;52.988;6.536;2024-03-22T12:40:51;6.22;;;2.83;;
52033;SDS011;38045;52.988;6.536;2024-03-22T12:43:16;6.13;;;3.47;;
52033;SDS011;38045;52.988;6.536;2024-03-22T12:45:42;4.72;;;2.72;;
52033;SDS011;38045;52.988;6.536;2024-03-22T12:48:08;7.75;;;3.83;;
52033;SDS011;38045;52.988;6.536;2024-03-22T12:50:33;9.93;;;3.38;;
52033;SDS011;38045;52.988;6.536;2024-03-22T12:53:00;6.22;;;3.90;;
52033;SDS011;38045;52.988;6.536;2024-03-22T12:55:26;13.35;;;4.15;;
52033;SDS011;38045;52.988;6.536;2024-03-22T12:57:53;6.82;;;4.60;;
52033;SDS011;38045;52.988;6.536;2024-03-22T13:00:19;6.75;;;3.03;;
52033;SDS011;38045;52.988;6.536;2024-03-22T13:02:45;7.55;;;4.68;;
52033;SDS011;38045;52.988;6.536;2024-03-22T13:05:11;7.07;;;4.30;;
52033;SDS011;38045;52.988;6.536;2024-03-22T13:07:37;5.20;;;3.97;;
52033;SDS011;38045;52.988;6.536;2024-03-22T13:10:03;5.97;;;3.95;;
52033;SDS011;38045;52.988;6.536;2024-03-22T13:12:29;6.25;;;4.00;;
52033;SDS011;38045;52.988;6.536;2024-03-22T13:14:59;6.13;;;3.55;;
52033;SDS011;38045;52.988;6.536;2024-03-22T13:17:25;8.45;;;4.25;;
52033;SDS011;38045;52.988;6.536;2024-03-22T13:19:51;13.02;;;5.15;;
52033;SDS011;38045;52.988;6.536;2024-03-22T13:22:17;7.60;;;4.53;;
52033;SDS011;38045;52.988;6.536;2024-03-22T13:24:46;9.65;;;6.15;;
52033;SDS011;38045;52.988;6.536;2024-03-22T13:27:12;9.15;;;5.22;;
52033;SDS011;38045;52.988;6.536;2024-03-22T13:29:39;11.43;;;6.20;;
52033;SDS011;38045;52.988;6.536;2024-03-22T13:32:07;12.38;;;6.10;;
52033;SDS011;38045;52.988;6.536;2024-03-22T13:34:39;15.10;;;5.45;;
52033;SDS011;38045;52.988;6.536;2024-03-22T13:37:04;13.75;;;6.18;;
52033;SDS011;38045;52.988;6.536;2024-03-22T13:39:33;7.80;;;4.73;;
52033;SDS011;38045;52.988;6.536;2024-03-22T13:41:58;10.43;;;8.00;;
52033;SDS011;38045;52.988;6.536;2024-03-22T13:44:24;13.68;;;7.03;;
52033;SDS011;38045;52.988;6.536;2024-03-22T13:46:50;15.43;;;6.70;;
52033;SDS011;38045;52.988;6.536;2024-03-22T13:49:16;11.20;;;4.78;;
52033;SDS011;38045;52.988;6.536;2024-03-22T13:51:49;15.35;;;7.47;;
52033;SDS011;38045;52.988;6.536;2024-03-22T13:54:15;14.40;;;6.57;;
52033;SDS011;38045;52.988;6.536;2024-03-22T13:56:40;16.30;;;8.35;;
52033;SDS011;38045;52.988;6.536;2024-03-22T13:59:06;9.55;;;4.07;;
52033;SDS011;38045;52.988;6.536;2024-03-22T14:01:35;18.77;;;7.72;;
52033;SDS011;38045;52.988;6.536;2024-03-22T14:04:01;10.35;;;4.68;;
52033;SDS011;38045;52.988;6.536;2024-03-22T14:06:29;17.23;;;8.73;;
52033;SDS011;38045;52.988;6.536;2024-03-22T14:08:56;18.60;;;7.68;;
52033;SDS011;38045;52.988;6.536;2024-03-22T14:11:25;12.43;;;5.85;;
52033;SDS011;38045;52.988;6.536;2024-03-22T14:13:52;11.25;;;7.40;;
52033;SDS011;38045;52.988;6.536;2024-03-22T14:16:17;20.85;;;9.00;;
52033;SDS011;38045;52.988;6.536;2024-03-22T14:18:43;14.75;;;7.57;;
52033;SDS011;38045;52.988;6.536;2024-03-22T14:21:08;11.13;;;7.90;;